Flight Track Log - Related Links

Times and Time Zones

All times are in EDT time to prevent confusion due to time zone crossing. See the N765GM flight status page for this flight to view local times or setup timezone preferences in your user account.

Time Position Orientation Groundspeed Altitude Reporting Facility
EDT Latitude Longitude Course Direction KTS MPH feet Rate Location/Type
Fri 05:10:53 PM 25.8040 -80.2780 85° East 121 139 500  Level FlightAware
Fri 05:11:33 PM 25.8170 -80.2580 54° Northeast 119 137 1,600 1,440 Climbing FlightAware
Fri 05:12:08 PM 25.8290 -80.2420 50° Northeast 123 142 2,300 1,217 Climbing FlightAware
Fri 05:12:42 PM 25.8410 -80.2260 50° Northeast 125 144 3,000 1,304 Climbing FlightAware
Fri 05:13:17 PM 25.8630 -80.2250 North 128 147 3,800 923 Climbing FlightAware
Fri 05:13:47 PM 25.8830 -80.2270 355° North 153 176 4,000 182 Climbing FlightAware
Fri 05:14:23 PM 25.9000 -80.2430 320° Northwest 158 182 4,000  Level FlightAware
Fri 05:14:49 PM 25.8960 -80.2640 258° West 161 185 4,000 243 Level FlightAware
Fri 05:15:37 PM 25.9220 -80.2820 328° Northwest 164 189 4,300 771 Climbing FlightAware
Fri 05:15:59 PM 25.9400 -80.2840 354° North 143 165 4,900 724 Climbing FlightAware
Fri 05:16:35 PM 25.9640 -80.2860 356° North 166 191 5,000 79 Climbing FlightAware
Fri 05:17:15 PM 25.9930 -80.2940 346° North 167 192 5,000  Level FlightAware
Fri 05:17:43 PM 25.9970 -80.3140 283° West 162 186 5,000  Level FlightAware
Fri 05:18:30 PM 25.9950 -80.3580 267° West 164 189 5,000  Level FlightAware
Fri 05:19:00 PM 25.9930 -80.3840 265° West 166 191 5,000  Level FlightAware
Fri 05:19:40 PM 25.9910 -80.4180 266° West 166 191 5,000  Level FlightAware
Fri 05:20:20 PM 25.9890 -80.4520 266° West 166 191 5,000  Level FlightAware
Fri 05:20:55 PM 25.9880 -80.4820 268° West 163 188 5,000  Level FlightAware
Fri 05:21:25 PM 25.9960 -80.5050 291° West 172 198 5,000  Level FlightAware
Fri 05:21:50 PM 26.0100 -80.5190 318° Northwest 165 190 5,000  Level FlightAware
Fri 05:22:20 PM 26.0270 -80.5390 313° West 167 192 5,000  Level FlightAware
Fri 05:22:55 PM 26.0470 -80.5610 315° West 169 194 5,000  Level FlightAware
Fri 05:23:25 PM 26.0640 -80.5800 315° West 168 193 5,000  Level FlightAware
Fri 05:24:00 PM 26.0840 -80.6010 317° Northwest 168 193 5,000  Level FlightAware
Fri 05:24:30 PM 26.1010 -80.6210 313° West 168 193 5,000  Level FlightAware
Fri 05:25:05 PM 26.1220 -80.6430 317° Northwest 169 194 5,000  Level FlightAware
Fri 05:25:35 PM 26.1390 -80.6620 315° West 167 192 5,000  Level FlightAware
Fri 05:26:00 PM 26.1530 -80.6780 314° West 168 193 5,000  Level FlightAware
Fri 05:26:35 PM 26.1730 -80.7000 315° West 170 196 5,000 92 Level FlightAware
Fri 05:27:05 PM 26.1900 -80.7190 315° West 164 189 5,100 960 Climbing FlightAware
Fri 05:27:50 PM 26.2120 -80.7430 316° Northwest 126 145 6,200 1,200 Climbing FlightAware
Fri 05:28:25 PM 26.2280 -80.7610 315° West 140 161 6,700 982 Climbing FlightAware
Fri 05:28:45 PM 26.2370 -80.7710 315° West 141 162 7,100 894 Climbing FlightAware
Fri 05:29:12 PM 26.2480 -80.7840 313° West 141 162 7,400 840 Climbing FlightAware
Fri 05:29:35 PM 26.2600 -80.7970 316° Northwest 142 163 7,800 571 Climbing FlightAware
Fri 05:30:15 PM 26.2800 -80.8180 317° Northwest 164 189 8,000 200 Climbing FlightAware
Fri 05:30:35 PM 26.2910 -80.8310 313° West 164 189 8,000  Level FlightAware
Fri 05:31:00 PM 26.3050 -80.8470 314° West 168 193 8,000  Level FlightAware
Fri 05:31:35 PM 26.3250 -80.8690 315° West 169 194 8,000  Level FlightAware
Fri 05:32:05 PM 26.3420 -80.8880 315° West 171 197 8,000  Level FlightAware
Fri 05:32:30 PM 26.3570 -80.9040 316° Northwest 172 198 8,000  Level FlightAware
Fri 05:32:50 PM 26.3680 -80.9170 313° West 171 197 8,000  Level FlightAware
Fri 05:33:15 PM 26.3830 -80.9330 316° Northwest 169 194 8,000  Level FlightAware
Fri 05:33:45 PM 26.4000 -80.9520 315° West 170 196 8,000  Level FlightAware
Fri 05:34:12 PM 26.4150 -80.9690 315° West 171 197 8,000  Level FlightAware
Fri 05:34:35 PM 26.4290 -80.9850 314° West 178 205 8,000  Level FlightAware
Fri 05:35:20 PM 26.4570 -81.0120 319° Northwest 179 206 8,000  Level FlightAware
Fri 05:35:35 PM 26.4660 -81.0220 315° West 179 206 8,000  Level FlightAware
Fri 05:36:05 PM 26.4840 -81.0400 318° Northwest 178 205 8,000  Level FlightAware
Fri 05:36:35 PM 26.5030 -81.0590 318° Northwest 178 205 8,000  Level FlightAware
Fri 05:37:05 PM 26.5210 -81.0770 318° Northwest 179 206 8,000  Level FlightAware
Fri 05:37:30 PM 26.5370 -81.0930 318° Northwest 178 205 8,000  Level FlightAware
Fri 05:38:05 PM 26.5580 -81.1150 317° Northwest 176 203 8,000  Level FlightAware
Fri 05:38:21 PM 26.5680 -81.1250 318° Northwest 177 204 8,000  Level FlightAware
Fri 05:39:10 PM 26.5920 -81.1510 316° Northwest 177 204 8,000  Level FlightAware
Fri 05:39:36 PM 26.6120 -81.1700 320° Northwest 175 201 8,000  Level FlightAware
Fri 05:40:10 PM 26.6320 -81.1900 318° Northwest 175 201 8,000  Level FlightAware
Fri 05:40:44 PM 26.6530 -81.2120 317° Northwest 175 201 8,000  Level FlightAware
Fri 05:41:17 PM 26.6710 -81.2310 317° Northwest 175 201 8,000  Level FlightAware
Fri 05:41:53 PM 26.6890 -81.2500 317° Northwest 175 201 8,000  Level FlightAware
Fri 05:42:23 PM 26.7120 -81.2730 318° Northwest 174 200 8,000  Level FlightAware
Fri 05:43:02 PM 26.7360 -81.2970 318° Northwest 173 199 8,000  Level FlightAware
Fri 05:43:08 PM 26.7390 -81.3000 318° Northwest 172 198 8,000  Level FlightAware
Fri 05:43:56 PM 26.7690 -81.3310 317° Northwest 171 197 8,000  Level FlightAware
Fri 05:44:22 PM 26.7830 -81.3450 318° Northwest 172 198 8,000  Level FlightAware
Fri 05:44:52 PM 26.8010 -81.3640 317° Northwest 171 197 8,000  Level FlightAware
Fri 05:45:17 PM 26.8150 -81.3780 318° Northwest 171 197 8,000  Level FlightAware
Fri 05:45:48 PM 26.8340 -81.3970 318° Northwest 170 196 8,000  Level FlightAware
Fri 05:46:25 PM 26.8540 -81.4210 313° West 169 194 8,000  Level FlightAware
Fri 05:46:53 PM 26.8680 -81.4380 313° West 169 194 8,000  Level FlightAware
Fri 05:47:09 PM 26.8770 -81.4490 313° West 169 194 8,000  Level FlightAware
Fri 05:48:01 PM 26.9050 -81.4820 314° West 169 194 8,000  Level FlightAware
Fri 05:48:31 PM 26.9210 -81.5010 313° West 169 194 8,000  Level FlightAware
Fri 05:49:01 PM 26.9380 -81.5210 314° West 167 192 8,000  Level FlightAware
Fri 05:49:28 PM 26.9520 -81.5370 314° West 168 193 8,000  Level FlightAware
Fri 05:50:00 PM 26.9690 -81.5580 312° West 169 194 8,000  Level FlightAware
Fri 05:50:34 PM 26.9880 -81.5800 314° West 169 194 8,000  Level FlightAware
Fri 05:50:54 PM 26.9980 -81.5920 313° West 169 194 8,000  Level FlightAware
Fri 05:51:27 PM 27.0160 -81.6130 314° West 169 194 8,000  Level FlightAware
Fri 05:51:59 PM 27.0330 -81.6330 314° West 169 194 8,000  Level FlightAware
Fri 05:52:34 PM 27.0520 -81.6560 313° West 169 194 8,000  Level FlightAware
Fri 05:52:56 PM 27.0640 -81.6700 314° West 169 194 8,000  Level FlightAware
Fri 05:53:16 PM 27.0740 -81.6830 311° West 167 192 8,000  Level FlightAware
Fri 05:53:49 PM 27.0920 -81.7040 314° West 166 191 8,000  Level FlightAware
Fri 05:54:12 PM 27.1030 -81.7170 314° West 168 193 8,000 -305 Level FlightAware
Fri 05:54:48 PM 27.1240 -81.7420 313° West 178 205 7,700 -490 Descending FlightAware
Fri 05:55:01 PM 27.1310 -81.7500 315° West 180 207 7,600 -492 Descending FlightAware
Fri 05:55:49 PM 27.1600 -81.7850 313° West 186 214 7,200 -439 Descending FlightAware
Fri 05:56:23 PM 27.1800 -81.8080 314° West 183 211 7,000 -207 Descending FlightAware
Fri 05:56:47 PM 27.1930 -81.8240 312° West 179 206 7,000  Level FlightAware
Fri 05:57:11 PM 27.2070 -81.8410 313° West 179 206 7,000  Level FlightAware
Fri 05:57:42 PM 27.2250 -81.8620 314° West 178 205 7,000  Level FlightAware
Fri 05:58:08 PM 27.2390 -81.8790 313° West 177 204 7,000  Level FlightAware
Fri 05:58:36 PM 27.2550 -81.8980 313° West 176 203 7,000  Level FlightAware
Fri 05:59:08 PM 27.2730 -81.9200 313° West 175 201 7,000  Level FlightAware
Fri 05:59:32 PM 27.2870 -81.9360 315° West 175 201 7,000 -214 Level FlightAware
Fri 06:00:04 PM 27.3060 -81.9580 314° West 186 214 6,800 -407 Descending FlightAware
Fri 06:00:31 PM 27.3220 -81.9770 313° West 190 219 6,600 -453 Descending FlightAware
Fri 06:00:57 PM 27.3370 -81.9960 312° West 191 220 6,400 -536 Descending FlightAware
Fri 06:01:27 PM 27.3550 -82.0180 313° West 193 222 6,100 -414 Descending FlightAware
Fri 06:01:55 PM 27.3720 -82.0380 314° West 188 216 6,000 -321 Descending FlightAware
Fri 06:02:23 PM 27.3890 -82.0580 314° West 191 220 5,800 -517 Descending FlightAware
Fri 06:02:53 PM 27.4080 -82.0800 314° West 193 222 5,500 -625 Descending FlightAware
Fri 06:03:11 PM 27.4180 -82.0920 313° West 193 222 5,300 -655 Descending FlightAware
Fri 06:03:48 PM 27.4410 -82.1200 313° West 191 220 4,900 -358 Descending FlightAware
Fri 06:04:18 PM 27.4560 -82.1390 312° West 191 220 4,900 -409 Level FlightAware
Fri 06:06:00 PM 27.5250 -82.2000 322° Northwest 180 207 4,000 -412 Descending FlightAware
Fri 06:06:29 PM 27.5510 -82.2050 350° North 178 205 4,000  Level FlightAware
Fri 06:07:00 PM 27.5750 -82.2100 350° North 177 204 4,000  Level FlightAware
Fri 06:07:28 PM 27.5980 -82.2140 351° North 176 203 4,000  Level FlightAware
Fri 06:07:54 PM 27.6180 -82.2180 350° North 175 201 4,000  Level FlightAware
Fri 06:08:26 PM 27.6440 -82.2250 347° North 174 200 4,000  Level FlightAware
Fri 06:08:53 PM 27.6660 -82.2300 349° North 174 200 4,000  Level FlightAware
Fri 06:09:22 PM 27.6890 -82.2350 349° North 175 201 4,000  Level FlightAware
Fri 06:09:46 PM 27.7080 -82.2390 349° North 176 203 4,000  Level FlightAware
Fri 06:10:20 PM 27.7340 -82.2450 348° North 178 205 4,000  Level FlightAware
Fri 06:10:46 PM 27.7560 -82.2380 16° North 183 211 4,000  Level FlightAware
Fri 06:11:08 PM 27.7740 -82.2320 16° North 181 208 4,000  Level FlightAware
Fri 06:11:33 PM 27.7950 -82.2240 19° North 180 207 4,000  Level FlightAware
Fri 06:12:06 PM 27.8210 -82.2150 17° North 181 208 4,000  Level FlightAware
Fri 06:12:36 PM 27.8440 -82.2060 19° North 182 209 4,000 -343 Level FlightAware
Fri 06:13:16 PM 27.8780 -82.1940 17° North 189 217 3,600 -667 Descending FlightAware
Fri 06:13:48 PM 27.9050 -82.1850 16° North 187 215 3,200 -486 Descending FlightAware
Fri 06:14:30 PM 27.9390 -82.1920 350° North 178 205 3,000 -162 Descending FlightAware
Fri 06:15:02 PM 27.9660 -82.1980 349° North 178 205 3,000  Level FlightAware
Fri 06:15:26 PM 27.9860 -82.2020 350° North 179 206 3,000  Level FlightAware
Fri 06:15:54 PM 28.0080 -82.2070 349° North 179 206 3,000  Level FlightAware
Fri 06:16:22 PM 28.0310 -82.2140 345° North 174 200 3,000 -375 Level FlightAware
Fri 06:16:58 PM 28.0530 -82.2360 319° Northwest 187 215 2,600 -871 Descending FlightAware
Fri 06:17:24 PM 28.0710 -82.2530 320° Northwest 189 217 2,100 -1,080 Descending FlightAware
Fri 06:17:48 PM 28.0850 -82.2700 313° West 187 215 1,700 -938 Descending FlightAware
Fri 06:17:56 PM 28.0870 -82.2770 288° West 179 206 1,600 -125 Descending FlightAware
Fri 06:18:36 PM 28.0760 -82.3090 249° West 159 183 1,600  Level FlightAware
Fri 06:19:02 PM 28.0670 -82.3280 242° Southwest 154 177 1,600 91 Level FlightAware
Fri 06:19:42 PM 28.0410 -82.3390 200° South 149 171 1,700 281 Climbing FlightAware
Fri 06:20:06 PM 28.0270 -82.3490 212° Southwest 144 166 1,900 -109 Climbing FlightAware
Fri 06:20:37 PM 28.0100 -82.3660 221° Southwest 148 170 1,600 -295 Descending FlightAware
Fri 06:21:07 PM 27.9960 -82.3800 221° Southwest 134 154 1,600 120 Level FlightAware
Fri 06:21:27 PM 27.9870 -82.3890 221° Southwest 125 144 1,700 -245 Climbing FlightAware
Fri 06:21:56 PM 27.9740 -82.4000 217° Southwest 121 139 1,400 -590 Descending FlightAware
Fri 06:22:28 PM 27.9600 -82.4120 217° Southwest 117 135 1,100 -600 Descending FlightAware
Fri 06:22:56 PM 27.9480 -82.4220 216° Southwest 116 133 800 -643 Descending FlightAware
Fri 06:23:24 PM 27.9370 -82.4320 219° Southwest 94 108 500 -667 Descending FlightAware
Fri 06:23:32 PM 27.9340 -82.4350 221° Southwest 91 105 400 -176 Descending FlightAware
Fri 06:23:58 PM 27.9260 -82.4410 214° Southwest 91 105 400  Level FlightAware

Login

Don't have an account? Register now (free) for customized features, flight alerts, and more!